createdAt,value
2018-11-13T00:00:55.338Z,0.00
2018-11-13T00:01:55.291Z,0.00
2018-11-13T00:02:55.243Z,0.00
2018-11-13T00:03:55.196Z,0.00
2018-11-13T00:04:55.161Z,0.00
2018-11-13T00:05:55.112Z,0.00
2018-11-13T00:06:55.076Z,0.00
2018-11-13T00:07:55.016Z,0.00
2018-11-13T00:08:54.966Z,0.00
2018-11-13T00:09:54.919Z,0.00
2018-11-13T00:10:54.877Z,0.00
2018-11-13T00:11:54.828Z,0.00
2018-11-13T00:12:54.849Z,0.00
2018-11-13T00:13:54.736Z,0.00
2018-11-13T00:14:54.691Z,0.00
2018-11-13T00:15:54.649Z,0.00
2018-11-13T00:16:54.601Z,0.00
2018-11-13T00:17:54.551Z,0.00
2018-11-13T00:18:54.508Z,0.00
2018-11-13T00:19:54.462Z,0.00
2018-11-13T00:20:54.418Z,0.00
2018-11-13T00:21:54.365Z,0.00
2018-11-13T00:22:54.371Z,0.00
2018-11-13T00:23:54.341Z,0.00
2018-11-13T00:24:54.266Z,0.00
2018-11-13T00:25:54.188Z,0.00
2018-11-13T00:26:54.189Z,0.00
2018-11-13T00:27:54.102Z,0.00
2018-11-13T00:28:54.048Z,0.00
2018-11-13T00:29:54.000Z,0.00
2018-11-13T00:30:53.959Z,0.00
2018-11-13T00:31:53.919Z,0.00
2018-11-13T00:32:53.865Z,0.00
2018-11-13T00:33:53.811Z,0.00
2018-11-13T00:34:53.769Z,0.00
2018-11-13T00:35:53.720Z,0.00
2018-11-13T00:36:53.675Z,0.00
2018-11-13T00:37:53.631Z,0.00
2018-11-13T00:38:53.588Z,0.00
2018-11-13T00:39:53.606Z,0.00
2018-11-13T00:40:53.494Z,0.00
2018-11-13T00:41:53.449Z,0.00
2018-11-13T00:42:53.397Z,0.00
2018-11-13T00:43:53.349Z,0.00
2018-11-13T00:44:53.313Z,0.00
2018-11-13T00:45:53.803Z,0.00
2018-11-13T00:46:53.212Z,0.00
2018-11-13T00:47:53.169Z,0.00
2018-11-13T00:48:53.120Z,0.00
2018-11-13T00:49:53.079Z,0.00
2018-11-13T00:50:53.038Z,0.00
2018-11-13T00:51:52.980Z,0.00
2018-11-13T00:52:52.933Z,0.00
2018-11-13T00:53:52.888Z,0.00
2018-11-13T00:54:52.882Z,0.00
2018-11-13T00:55:52.801Z,0.00
2018-11-13T00:56:52.749Z,0.00
2018-11-13T00:57:52.706Z,0.00
2018-11-13T00:58:52.655Z,0.00
2018-11-13T00:59:52.611Z,0.00
2018-11-13T01:00:52.701Z,0.00
2018-11-13T01:01:52.541Z,0.00
2018-11-13T01:02:52.473Z,0.00
2018-11-13T01:03:52.427Z,0.00
2018-11-13T01:04:52.381Z,0.00
2018-11-13T01:05:52.810Z,0.00
2018-11-13T01:06:52.292Z,0.00
2018-11-13T01:07:52.243Z,0.00
2018-11-13T01:08:52.198Z,0.00
2018-11-13T01:09:52.148Z,0.00
2018-11-13T01:10:52.104Z,0.00
2018-11-13T01:11:52.070Z,0.00
2018-11-13T01:12:52.010Z,0.00
2018-11-13T01:13:51.962Z,0.00
2018-11-13T01:14:51.952Z,0.00
2018-11-13T01:15:51.875Z,0.00
2018-11-13T01:16:51.827Z,0.00
2018-11-13T01:17:51.784Z,0.00
2018-11-13T01:18:51.735Z,0.00
2018-11-13T01:19:51.689Z,0.00
2018-11-13T01:20:51.640Z,0.00
2018-11-13T01:21:51.592Z,0.00
2018-11-13T01:22:51.550Z,0.00
2018-11-13T01:23:51.513Z,0.00
2018-11-13T01:24:51.458Z,0.00
2018-11-13T01:25:51.408Z,0.00
2018-11-13T01:26:51.366Z,0.00
2018-11-13T01:27:51.317Z,0.00
2018-11-13T01:28:51.272Z,0.00
2018-11-13T01:29:51.227Z,0.00
2018-11-13T01:30:51.178Z,0.00
2018-11-13T01:31:51.133Z,0.00
2018-11-13T01:32:51.085Z,0.00
2018-11-13T01:33:51.091Z,0.00
2018-11-13T01:34:50.995Z,0.00
2018-11-13T01:35:50.951Z,0.00
2018-11-13T01:36:50.911Z,0.00
2018-11-13T01:37:50.864Z,0.00
2018-11-13T01:38:50.808Z,0.00
2018-11-13T01:39:50.762Z,0.00
2018-11-13T01:40:50.716Z,0.00
2018-11-13T01:41:50.669Z,0.00
2018-11-13T01:42:50.626Z,0.00
2018-11-13T01:43:50.578Z,0.00
2018-11-13T01:44:50.541Z,0.00
2018-11-13T01:45:50.485Z,0.00
2018-11-13T01:46:50.439Z,0.00
2018-11-13T01:47:50.441Z,0.00
2018-11-13T01:48:50.349Z,0.00
2018-11-13T01:49:50.299Z,0.00
2018-11-13T01:50:50.253Z,0.00
2018-11-13T01:51:50.459Z,0.00
2018-11-13T01:52:50.164Z,0.00
2018-11-13T01:53:50.117Z,0.00
2018-11-13T01:54:50.069Z,0.00
2018-11-13T01:55:50.020Z,0.00
2018-11-13T01:56:49.982Z,0.00
2018-11-13T01:57:49.927Z,0.00
2018-11-13T01:58:49.881Z,0.00
2018-11-13T01:59:49.836Z,0.00
2018-11-13T02:00:49.796Z,0.00
2018-11-13T02:01:49.745Z,0.00
2018-11-13T02:02:49.697Z,0.00
2018-11-13T02:03:49.654Z,0.00
2018-11-13T02:04:49.610Z,0.00
2018-11-13T02:05:49.557Z,0.00
2018-11-13T02:06:49.512Z,0.00
2018-11-13T02:07:49.468Z,0.00
2018-11-13T02:08:49.427Z,0.00
2018-11-13T02:09:49.375Z,0.00
2018-11-13T02:10:49.333Z,0.00
2018-11-13T02:11:49.283Z,0.00
2018-11-13T02:12:49.236Z,0.00
2018-11-13T02:13:49.188Z,0.00
2018-11-13T02:14:49.142Z,0.00
2018-11-13T02:15:49.097Z,0.00
2018-11-13T02:16:49.053Z,0.00
2018-11-13T02:17:49.001Z,0.00
2018-11-13T02:18:48.959Z,0.00
2018-11-13T02:19:48.912Z,0.00
2018-11-13T02:20:48.866Z,0.00
2018-11-13T02:21:48.822Z,0.00
2018-11-13T02:22:48.772Z,0.00
2018-11-13T02:23:48.733Z,0.00
2018-11-13T02:24:48.684Z,0.00
2018-11-13T02:25:48.637Z,0.00
2018-11-13T02:26:48.588Z,0.00
2018-11-13T02:27:48.541Z,0.00
2018-11-13T02:28:48.497Z,0.00
2018-11-13T02:29:48.448Z,0.00
2018-11-13T02:30:48.401Z,0.00
2018-11-13T02:31:48.359Z,0.00
2018-11-13T02:32:48.312Z,0.00
2018-11-13T02:33:48.261Z,0.00
2018-11-13T02:34:48.219Z,0.00
2018-11-13T02:35:48.171Z,0.00
2018-11-13T02:36:48.128Z,0.00
2018-11-13T02:37:48.079Z,0.00
2018-11-13T02:38:48.030Z,0.00
2018-11-13T02:39:47.991Z,0.00
2018-11-13T02:40:47.942Z,0.00
2018-11-13T02:41:47.895Z,0.00
2018-11-13T02:42:47.846Z,0.00
2018-11-13T02:43:47.809Z,0.00
2018-11-13T02:44:47.759Z,0.00
2018-11-13T02:45:47.709Z,0.00
2018-11-13T02:46:47.665Z,0.00
2018-11-13T02:47:47.620Z,0.00
2018-11-13T02:48:47.568Z,0.00
2018-11-13T02:49:47.521Z,0.00
2018-11-13T02:50:47.479Z,0.00
2018-11-13T02:51:47.433Z,0.00
2018-11-13T02:52:47.432Z,0.00
2018-11-13T02:53:47.335Z,0.00
2018-11-13T02:54:47.295Z,0.00
2018-11-13T02:55:47.250Z,0.00
2018-11-13T02:56:47.199Z,0.00
2018-11-13T02:57:47.158Z,0.00
2018-11-13T02:58:47.105Z,0.00
2018-11-13T02:59:47.059Z,0.00
2018-11-13T03:00:47.020Z,0.00
2018-11-13T03:01:46.967Z,0.00
2018-11-13T03:02:46.921Z,0.00
2018-11-13T03:03:46.879Z,0.00
2018-11-13T03:04:46.827Z,0.00
2018-11-13T03:05:46.780Z,0.00
2018-11-13T03:06:46.752Z,0.00
2018-11-13T03:07:46.780Z,0.00
2018-11-13T03:08:46.723Z,0.00
2018-11-13T03:09:46.726Z,0.00
2018-11-13T03:10:46.553Z,0.00
2018-11-13T03:11:46.503Z,0.00
2018-11-13T03:12:46.458Z,0.00
2018-11-13T03:13:46.510Z,0.00
2018-11-13T03:14:46.363Z,0.00
2018-11-13T03:15:46.332Z,0.00
2018-11-13T03:16:46.275Z,0.00
2018-11-13T03:17:46.228Z,0.00
2018-11-13T03:18:46.180Z,0.00
2018-11-13T03:19:46.132Z,0.00
2018-11-13T03:20:46.093Z,0.00
2018-11-13T03:21:46.049Z,0.00
2018-11-13T03:22:45.994Z,0.00
2018-11-13T03:23:47.748Z,0.00
2018-11-13T03:24:45.904Z,0.00
2018-11-13T03:25:45.858Z,0.00
2018-11-13T03:26:45.810Z,0.00
2018-11-13T03:27:45.767Z,0.00
2018-11-13T03:28:45.717Z,0.00
2018-11-13T03:29:45.669Z,0.00
2018-11-13T03:30:45.630Z,0.00
2018-11-13T03:31:45.582Z,0.00
2018-11-13T03:32:45.541Z,0.00
2018-11-13T03:33:45.485Z,0.00
2018-11-13T03:34:45.445Z,0.00
2018-11-13T03:35:45.394Z,0.00
2018-11-13T03:36:45.347Z,0.00
2018-11-13T03:37:45.302Z,0.00
2018-11-13T03:38:45.256Z,0.00
2018-11-13T03:39:45.207Z,0.00
2018-11-13T03:40:45.159Z,0.00
2018-11-13T03:41:45.115Z,0.00
2018-11-13T03:42:45.072Z,0.00
2018-11-13T03:43:45.024Z,0.00
2018-11-13T03:44:44.978Z,0.00
2018-11-13T03:45:44.930Z,0.00
2018-11-13T03:46:44.885Z,0.00
2018-11-13T03:47:44.837Z,0.00
2018-11-13T03:48:44.803Z,0.00
2018-11-13T03:49:44.742Z,0.00
2018-11-13T03:50:44.699Z,0.00
2018-11-13T03:51:44.651Z,0.00
2018-11-13T03:52:44.604Z,0.00
2018-11-13T03:53:44.560Z,0.00
2018-11-13T03:54:44.516Z,0.00
2018-11-13T03:55:44.469Z,0.00
2018-11-13T03:56:44.422Z,0.00
2018-11-13T03:57:44.376Z,0.00
2018-11-13T03:58:44.331Z,0.00
2018-11-13T03:59:44.293Z,0.00
2018-11-13T04:00:44.235Z,0.00
2018-11-13T04:01:44.193Z,0.00
2018-11-13T04:02:44.148Z,0.00
2018-11-13T04:03:44.102Z,0.00
2018-11-13T04:04:44.050Z,0.00
2018-11-13T04:05:44.018Z,0.00
2018-11-13T04:06:43.957Z,0.00
2018-11-13T04:07:43.913Z,0.00
2018-11-13T04:08:43.867Z,0.00
2018-11-13T04:09:43.821Z,0.00
2018-11-13T04:10:43.775Z,0.00
2018-11-13T04:11:43.726Z,0.00
2018-11-13T04:12:43.682Z,0.00
2018-11-13T04:13:43.636Z,0.00
2018-11-13T04:14:43.589Z,0.00
2018-11-13T04:15:43.543Z,0.00
2018-11-13T04:16:43.499Z,0.00
2018-11-13T04:17:43.451Z,0.00
2018-11-13T04:18:43.407Z,0.00
2018-11-13T04:19:43.360Z,0.00
2018-11-13T04:20:43.317Z,0.00
2018-11-13T04:21:43.262Z,0.00
2018-11-13T04:22:43.220Z,0.00
2018-11-13T04:23:43.172Z,0.00
2018-11-13T04:24:48.189Z,0.00
2018-11-13T04:25:43.082Z,0.00
2018-11-13T04:26:43.037Z,0.00
2018-11-13T04:27:42.988Z,0.00
2018-11-13T04:28:42.942Z,0.00
2018-11-13T04:29:42.896Z,0.00
2018-11-13T04:30:42.877Z,0.00
2018-11-13T04:31:42.805Z,0.00
2018-11-13T04:32:42.759Z,0.00
2018-11-13T04:33:42.711Z,0.00
2018-11-13T04:34:42.666Z,0.00
2018-11-13T04:35:42.617Z,0.00
2018-11-13T04:36:42.573Z,0.00
2018-11-13T04:37:42.523Z,0.00
2018-11-13T04:38:42.483Z,0.00
2018-11-13T04:39:42.436Z,0.00
2018-11-13T04:40:42.389Z,0.00
2018-11-13T04:41:42.342Z,0.00
2018-11-13T04:42:42.296Z,0.00
2018-11-13T04:43:42.255Z,0.00
2018-11-13T04:44:42.203Z,0.00
2018-11-13T04:45:42.159Z,0.00
2018-11-13T04:46:42.113Z,0.00
2018-11-13T04:47:42.068Z,0.00
2018-11-13T04:48:42.021Z,0.00
2018-11-13T04:49:41.973Z,0.00
2018-11-13T04:50:41.925Z,0.00
2018-11-13T04:51:41.930Z,0.00
2018-11-13T04:52:41.834Z,0.00
2018-11-13T04:53:41.790Z,0.00
2018-11-13T04:54:41.740Z,0.00
2018-11-13T04:55:41.697Z,0.00
2018-11-13T04:56:41.650Z,0.00
2018-11-13T04:57:41.602Z,0.00
2018-11-13T04:58:41.555Z,0.00
2018-11-13T04:59:41.509Z,0.00
2018-11-13T05:00:41.469Z,0.00
2018-11-13T05:01:41.421Z,0.00
2018-11-13T05:02:41.450Z,0.00
2018-11-13T05:03:41.325Z,0.00
2018-11-13T05:04:41.280Z,0.00
2018-11-13T05:05:41.236Z,0.00
2018-11-13T05:06:41.186Z,0.00
2018-11-13T05:07:41.142Z,0.00
2018-11-13T05:08:41.097Z,0.00
2018-11-13T05:09:41.057Z,0.00
2018-11-13T05:10:41.008Z,0.00
2018-11-13T05:11:40.958Z,0.00
2018-11-13T05:12:40.910Z,0.00
2018-11-13T05:13:40.862Z,0.00
2018-11-13T05:14:40.820Z,0.00
2018-11-13T05:15:40.781Z,0.00
2018-11-13T05:16:40.722Z,0.00
2018-11-13T05:17:40.683Z,0.00
2018-11-13T05:18:40.631Z,0.00
2018-11-13T05:19:40.585Z,0.00
2018-11-13T05:20:40.540Z,0.00
2018-11-13T05:21:40.491Z,0.00
2018-11-13T05:22:40.445Z,0.00
2018-11-13T05:23:40.405Z,0.00
2018-11-13T05:24:40.352Z,0.00
2018-11-13T05:25:40.316Z,0.00
2018-11-13T05:26:40.272Z,0.00
2018-11-13T05:27:40.217Z,0.00
2018-11-13T05:28:40.170Z,0.00
2018-11-13T05:29:40.126Z,0.00
2018-11-13T05:30:40.073Z,0.00
2018-11-13T05:31:40.032Z,0.00
2018-11-13T05:32:39.989Z,0.00
2018-11-13T05:33:39.938Z,0.00
2018-11-13T05:34:39.890Z,0.00
2018-11-13T05:35:39.846Z,0.00
2018-11-13T05:36:39.802Z,0.00
2018-11-13T05:37:39.750Z,0.00
2018-11-13T05:38:39.705Z,0.00
2018-11-13T05:39:39.661Z,0.00
2018-11-13T05:40:39.615Z,0.00
2018-11-13T05:41:39.571Z,0.00
2018-11-13T05:42:39.519Z,0.00
2018-11-13T05:43:39.484Z,0.00
2018-11-13T05:44:39.431Z,0.00
2018-11-13T05:45:39.383Z,0.00
2018-11-13T05:46:39.337Z,0.00
2018-11-13T05:47:39.290Z,0.00
2018-11-13T05:48:39.243Z,0.00
2018-11-13T05:49:39.201Z,0.00
2018-11-13T05:50:39.156Z,0.00
2018-11-13T05:51:39.107Z,0.00
2018-11-13T05:52:39.065Z,0.00
2018-11-13T05:53:39.014Z,0.00
2018-11-13T05:54:38.968Z,0.00
2018-11-13T05:55:38.920Z,0.00
2018-11-13T05:56:38.873Z,0.00
2018-11-13T05:57:38.827Z,0.00
2018-11-13T05:58:38.784Z,0.00
2018-11-13T05:59:38.746Z,0.00
2018-11-13T06:00:38.691Z,0.00
2018-11-13T06:01:38.642Z,0.00
2018-11-13T06:02:38.596Z,0.00
2018-11-13T06:03:38.555Z,0.00
2018-11-13T06:04:38.504Z,0.00
2018-11-13T06:05:38.457Z,0.00
2018-11-13T06:06:38.407Z,0.00
2018-11-13T06:07:38.366Z,0.00
2018-11-13T06:08:38.412Z,0.00
2018-11-13T06:09:38.271Z,0.00
2018-11-13T06:10:38.222Z,0.00
2018-11-13T06:11:38.183Z,4.00
2018-11-13T06:12:38.137Z,4.00
2018-11-13T06:13:38.082Z,4.00
2018-11-13T06:14:38.040Z,4.00
2018-11-13T06:15:37.994Z,4.00
2018-11-13T06:16:37.964Z,4.00
2018-11-13T06:17:37.902Z,4.00
2018-11-13T06:18:37.857Z,4.00
2018-11-13T06:19:37.810Z,4.00
2018-11-13T06:20:37.759Z,0.00
2018-11-13T06:21:37.717Z,0.00
2018-11-13T06:22:37.668Z,0.00
2018-11-13T06:23:37.624Z,4.00
2018-11-13T06:24:37.577Z,4.00
2018-11-13T06:25:37.531Z,4.00
2018-11-13T06:26:37.486Z,4.00
2018-11-13T06:27:37.436Z,4.00
2018-11-13T06:28:37.391Z,8.00
2018-11-13T06:29:37.436Z,8.00
2018-11-13T06:30:37.298Z,12.00
2018-11-13T06:31:37.248Z,8.00
2018-11-13T06:32:37.205Z,16.00
2018-11-13T06:33:37.160Z,16.00
2018-11-13T06:34:37.109Z,16.00
2018-11-13T06:35:37.067Z,16.00
2018-11-13T06:36:37.017Z,20.00
2018-11-13T06:37:36.971Z,20.00
2018-11-13T06:38:36.974Z,28.00
2018-11-13T06:39:36.881Z,28.00
2018-11-13T06:40:36.832Z,32.00
2018-11-13T06:41:36.783Z,32.00
2018-11-13T06:42:36.738Z,36.00
2018-11-13T06:43:36.693Z,40.00
2018-11-13T06:44:36.647Z,44.00
2018-11-13T06:45:36.600Z,44.00
2018-11-13T06:46:36.552Z,48.00
2018-11-13T06:47:36.508Z,52.00
2018-11-13T06:48:36.460Z,56.00
2018-11-13T06:49:36.492Z,60.00
2018-11-13T06:50:36.368Z,64.00
2018-11-13T06:51:36.325Z,68.00
2018-11-13T06:52:36.274Z,72.00
2018-11-13T06:53:36.232Z,72.00
2018-11-13T06:54:36.185Z,72.00
2018-11-13T06:55:36.134Z,72.00
2018-11-13T06:56:36.094Z,72.00
2018-11-13T06:57:36.103Z,64.00
2018-11-13T06:58:35.996Z,68.00
2018-11-13T06:59:35.948Z,72.00
2018-11-13T07:00:35.901Z,72.00
2018-11-13T07:01:35.857Z,76.00
2018-11-13T07:02:35.813Z,72.00
2018-11-13T07:03:35.762Z,80.00
2018-11-13T07:04:35.717Z,80.00
2018-11-13T07:05:35.669Z,80.00
2018-11-13T07:06:35.626Z,76.00
2018-11-13T07:07:35.576Z,72.00
2018-11-13T07:08:35.533Z,76.00
2018-11-13T07:09:35.484Z,76.00
2018-11-13T07:10:35.472Z,84.00
2018-11-13T07:11:35.394Z,92.00
2018-11-13T07:12:35.345Z,88.00
2018-11-13T07:13:35.300Z,104.00
2018-11-13T07:14:35.252Z,120.00
2018-11-13T07:15:35.213Z,124.00
2018-11-13T07:16:35.159Z,136.00
2018-11-13T07:17:35.114Z,132.00
2018-11-13T07:18:35.235Z,144.00
2018-11-13T07:19:35.026Z,168.00
2018-11-13T07:20:34.976Z,160.00
2018-11-13T07:21:34.929Z,172.00
2018-11-13T07:22:34.890Z,192.00
2018-11-13T07:23:34.835Z,188.00
2018-11-13T07:24:34.790Z,184.00
2018-11-13T07:25:34.836Z,200.00
2018-11-13T07:26:34.695Z,216.00
2018-11-13T07:27:34.684Z,188.00
2018-11-13T07:28:34.606Z,264.00
2018-11-13T07:29:34.560Z,388.00
2018-11-13T07:30:34.515Z,444.00
2018-11-13T07:31:34.467Z,464.00
2018-11-13T07:32:34.421Z,472.00
2018-11-13T07:33:34.407Z,520.00
2018-11-13T07:34:34.328Z,544.00
2018-11-13T07:35:34.281Z,564.00
2018-11-13T07:36:34.244Z,564.00
2018-11-13T07:37:34.194Z,556.00
2018-11-13T07:38:34.141Z,556.00
2018-11-13T07:39:34.094Z,552.00
2018-11-13T07:40:34.049Z,564.00
2018-11-13T07:41:34.008Z,544.00
2018-11-13T07:42:33.961Z,544.00
2018-11-13T07:43:33.913Z,572.00
2018-11-13T07:44:33.867Z,540.00
2018-11-13T07:45:33.822Z,560.00
2018-11-13T07:46:33.782Z,612.00
2018-11-13T07:47:33.897Z,640.00
2018-11-13T07:48:33.682Z,636.00
2018-11-13T07:49:33.647Z,640.00
2018-11-13T07:50:33.590Z,632.00
2018-11-13T07:51:33.544Z,636.00
2018-11-13T07:52:33.499Z,636.00
2018-11-13T07:53:33.455Z,656.00
2018-11-13T07:54:33.406Z,700.00
2018-11-13T07:55:33.362Z,716.00
2018-11-13T07:56:33.324Z,708.00
2018-11-13T07:57:33.269Z,704.00
2018-11-13T07:58:33.294Z,688.00
2018-11-13T07:59:33.174Z,668.00
2018-11-13T08:00:33.129Z,660.00
2018-11-13T08:01:33.084Z,660.00
2018-11-13T08:02:33.040Z,672.00
2018-11-13T08:03:33.044Z,680.00
2018-11-13T08:04:32.945Z,680.00
2018-11-13T08:05:32.934Z,684.00
2018-11-13T08:06:32.914Z,696.00
2018-11-13T08:07:32.819Z,696.00
2018-11-13T08:08:32.762Z,700.00
2018-11-13T08:09:32.716Z,700.00
2018-11-13T08:10:32.668Z,704.00
2018-11-13T08:11:32.621Z,716.00
2018-11-13T08:12:32.576Z,732.00
2018-11-13T08:13:32.594Z,748.00
2018-11-13T08:14:32.479Z,748.00
2018-11-13T08:15:32.477Z,776.00
2018-11-13T08:16:32.418Z,812.00
2018-11-13T08:17:32.343Z,844.00
2018-11-13T08:18:32.345Z,900.00
2018-11-13T08:19:32.250Z,1048.00
2018-11-13T08:20:32.203Z,1252.00
2018-11-13T08:21:32.159Z,1328.00
2018-11-13T08:22:32.112Z,1360.00
2018-11-13T08:23:32.065Z,1384.00
2018-11-13T08:24:32.025Z,1288.00
2018-11-13T08:25:31.984Z,1232.00
2018-11-13T08:26:31.927Z,1216.00
2018-11-13T08:27:31.884Z,1220.00
2018-11-13T08:28:31.851Z,1164.00
2018-11-13T08:29:31.799Z,1076.00
2018-11-13T08:30:31.742Z,1256.00
2018-11-13T08:31:31.700Z,1388.00
2018-11-13T08:32:31.651Z,1276.00
2018-11-13T08:33:31.604Z,1276.00
2018-11-13T08:34:31.655Z,1320.00
2018-11-13T08:35:31.569Z,1320.00
2018-11-13T08:36:31.465Z,1396.00
2018-11-13T08:37:31.422Z,1532.00
2018-11-13T08:38:31.372Z,1444.00
2018-11-13T08:39:31.330Z,1160.00
2018-11-13T08:40:31.283Z,1036.00
2018-11-13T08:41:31.239Z,836.00
2018-11-13T08:42:31.194Z,680.00
2018-11-13T08:43:31.147Z,872.00
2018-11-13T08:44:31.098Z,808.00
2018-11-13T08:45:31.054Z,752.00
2018-11-13T08:46:31.006Z,736.00
2018-11-13T08:47:30.960Z,852.00
2018-11-13T08:48:30.920Z,880.00
2018-11-13T08:49:30.871Z,860.00
2018-11-13T08:50:30.872Z,764.00
2018-11-13T08:51:30.781Z,852.00
2018-11-13T08:52:30.732Z,840.00
2018-11-13T08:53:30.690Z,796.00
2018-11-13T08:54:30.651Z,852.00
2018-11-13T08:55:30.591Z,968.00
2018-11-13T08:56:30.552Z,1036.00
2018-11-13T08:57:30.505Z,996.00
2018-11-13T08:58:30.533Z,972.00
2018-11-13T08:59:30.459Z,1092.00
2018-11-13T09:00:30.366Z,1248.00
2018-11-13T09:01:30.321Z,1300.00
2018-11-13T09:02:30.278Z,1120.00
2018-11-13T09:03:30.235Z,1044.00
2018-11-13T09:04:30.182Z,1072.00
2018-11-13T09:05:30.134Z,1180.00
2018-11-13T09:06:30.088Z,1604.00
2018-11-13T09:07:30.046Z,1456.00
2018-11-13T09:08:30.006Z,1424.00
2018-11-13T09:09:29.957Z,1312.00
2018-11-13T09:10:29.904Z,1120.00
2018-11-13T09:11:29.913Z,1240.00
2018-11-13T09:12:29.888Z,1012.00
2018-11-13T09:13:29.769Z,996.00
2018-11-13T09:14:29.791Z,1188.00
2018-11-13T09:15:29.789Z,852.00
2018-11-13T09:16:29.668Z,944.00
2018-11-13T09:17:29.668Z,1000.00
2018-11-13T09:18:29.575Z,836.00
2018-11-13T09:19:29.655Z,924.00
2018-11-13T09:20:29.545Z,1356.00
2018-11-13T09:21:29.427Z,1472.00
2018-11-13T09:22:29.429Z,1416.00
2018-11-13T09:23:29.428Z,1408.00
2018-11-13T09:24:29.305Z,1348.00
2018-11-13T09:25:29.304Z,1304.00
2018-11-13T09:26:29.184Z,1072.00
2018-11-13T09:27:29.186Z,1316.00
2018-11-13T09:28:29.185Z,1356.00
2018-11-13T09:29:29.065Z,1328.00
2018-11-13T09:30:29.275Z,1620.00
2018-11-13T09:31:29.109Z,2216.00
2018-11-13T09:32:28.944Z,1836.00
2018-11-13T09:33:28.961Z,1440.00
2018-11-13T09:34:28.828Z,1804.00
2018-11-13T09:35:28.864Z,1424.00
2018-11-13T09:36:28.826Z,1400.00
2018-11-13T09:37:28.761Z,1504.00
2018-11-13T09:38:28.705Z,1872.00
2018-11-13T09:39:28.585Z,1412.00
2018-11-13T09:40:28.579Z,1380.00
2018-11-13T09:41:28.582Z,1672.00
2018-11-13T09:42:28.461Z,1712.00
2018-11-13T09:43:28.460Z,1800.00
2018-11-13T09:44:28.459Z,1812.00
2018-11-13T09:45:28.339Z,1596.00
2018-11-13T09:46:28.397Z,1580.00
2018-11-13T09:47:28.237Z,1220.00
2018-11-13T09:48:28.221Z,1336.00
2018-11-13T09:49:28.218Z,1552.00
2018-11-13T09:50:28.126Z,1584.00
2018-11-13T09:51:28.097Z,1476.00
2018-11-13T09:52:28.099Z,1248.00
2018-11-13T09:53:28.007Z,1620.00
2018-11-13T09:54:27.980Z,1684.00
2018-11-13T09:55:27.864Z,1800.00
2018-11-13T09:56:27.934Z,2004.00
2018-11-13T09:57:27.864Z,2012.00
2018-11-13T09:58:27.741Z,1828.00
2018-11-13T09:59:27.744Z,1604.00
2018-11-13T10:00:27.886Z,2376.00
2018-11-13T10:01:27.900Z,1840.00
2018-11-13T10:02:28.475Z,1988.00
2018-11-13T10:03:28.056Z,1548.00
2018-11-13T10:04:28.018Z,2024.00
2018-11-13T10:05:27.641Z,2196.00
2018-11-13T10:06:27.377Z,2396.00
2018-11-13T10:07:27.373Z,1740.00
2018-11-13T10:08:27.336Z,1716.00
2018-11-13T10:09:27.256Z,1844.00
2018-11-13T10:10:27.334Z,2116.00
2018-11-13T10:11:27.137Z,1880.00
2018-11-13T10:12:27.134Z,1888.00
2018-11-13T10:13:27.139Z,2232.00
2018-11-13T10:14:27.021Z,2128.00
2018-11-13T10:15:27.016Z,1884.00
2018-11-13T10:16:27.010Z,2320.00
2018-11-13T10:17:26.917Z,2096.00
2018-11-13T10:18:27.129Z,1992.00
2018-11-13T10:19:26.776Z,2064.00
2018-11-13T10:20:26.773Z,2528.00
2018-11-13T10:21:26.771Z,2260.00
2018-11-13T10:22:26.654Z,1836.00
2018-11-13T10:23:26.659Z,2076.00
2018-11-13T10:24:26.612Z,1980.00
2018-11-13T10:25:26.528Z,2360.00
2018-11-13T10:26:26.614Z,1660.00
2018-11-13T10:27:26.415Z,1368.00
2018-11-13T10:28:26.412Z,2096.00
2018-11-13T10:29:26.415Z,1240.00
2018-11-13T10:30:26.289Z,1128.00
2018-11-13T10:31:26.288Z,1212.00
2018-11-13T10:32:26.173Z,1196.00
2018-11-13T10:33:26.168Z,1020.00
2018-11-13T10:34:26.171Z,1148.00
2018-11-13T10:35:26.048Z,1664.00
2018-11-13T10:36:26.052Z,1252.00
2018-11-13T10:37:26.047Z,1088.00
2018-11-13T10:38:25.936Z,968.00
2018-11-13T10:39:25.927Z,1312.00
2018-11-13T10:40:25.970Z,1396.00
2018-11-13T10:41:25.902Z,1256.00
2018-11-13T10:42:25.807Z,856.00
2018-11-13T10:43:25.688Z,760.00
2018-11-13T10:44:25.688Z,676.00
2018-11-13T10:45:25.691Z,692.00
2018-11-13T10:46:25.565Z,616.00
2018-11-13T10:47:25.568Z,496.00
2018-11-13T10:48:25.445Z,460.00
2018-11-13T10:49:25.446Z,532.00
2018-11-13T10:50:25.565Z,872.00
2018-11-13T10:51:25.332Z,1812.00
2018-11-13T10:52:25.327Z,1540.00
2018-11-13T10:53:25.330Z,1876.00
2018-11-13T10:54:25.205Z,1748.00
2018-11-13T10:55:25.208Z,1936.00
2018-11-13T10:56:25.248Z,2092.00
2018-11-13T10:57:25.081Z,2624.00
2018-11-13T10:58:25.082Z,3116.00
2018-11-13T10:59:24.964Z,2500.00
2018-11-13T11:00:24.970Z,2148.00
2018-11-13T11:01:24.966Z,2664.00
2018-11-13T11:02:24.898Z,2184.00
2018-11-13T11:03:24.846Z,2228.00
2018-11-13T11:04:24.766Z,2332.00
2018-11-13T11:05:24.724Z,2256.00
2018-11-13T11:06:24.722Z,1748.00
2018-11-13T11:07:24.599Z,1512.00
2018-11-13T11:08:24.613Z,1424.00
2018-11-13T11:09:24.601Z,1288.00
2018-11-13T11:10:24.482Z,1372.00
2018-11-13T11:11:24.512Z,1632.00
2018-11-13T11:12:24.361Z,1636.00
2018-11-13T11:13:24.546Z,1716.00
2018-11-13T11:14:24.361Z,1496.00
2018-11-13T11:15:24.243Z,1408.00
2018-11-13T11:16:24.238Z,1908.00
2018-11-13T11:17:24.239Z,1900.00
2018-11-13T11:18:24.119Z,2020.00
2018-11-13T11:19:24.149Z,2636.00
2018-11-13T11:20:24.000Z,2680.00
2018-11-13T11:21:24.002Z,2568.00
2018-11-13T11:22:23.995Z,2756.00
2018-11-13T11:23:23.903Z,2480.00
2018-11-13T11:24:23.888Z,2384.00
2018-11-13T11:25:24.046Z,2812.00
2018-11-13T11:26:23.760Z,3248.00
2018-11-13T11:27:23.757Z,3312.00
2018-11-13T11:28:23.649Z,3840.00
2018-11-13T11:29:23.636Z,3880.00
2018-11-13T11:30:23.649Z,3516.00
2018-11-13T11:31:23.515Z,2464.00
2018-11-13T11:32:23.520Z,2232.00
2018-11-13T11:33:23.515Z,2056.00
2018-11-13T11:34:23.396Z,3132.00
2018-11-13T11:35:23.394Z,2880.00
2018-11-13T11:36:23.273Z,2108.00
2018-11-13T11:37:23.274Z,2100.00
2018-11-13T11:38:23.308Z,2264.00
2018-11-13T11:39:23.154Z,2408.00
2018-11-13T11:40:23.155Z,2644.00
2018-11-13T11:41:23.153Z,1568.00
2018-11-13T11:42:23.037Z,1584.00
2018-11-13T11:43:23.034Z,2248.00
2018-11-13T11:44:23.086Z,2640.00
2018-11-13T11:45:22.910Z,2776.00
2018-11-13T11:46:22.912Z,2136.00
2018-11-13T11:47:22.792Z,1340.00
2018-11-13T11:48:22.791Z,956.00
2018-11-13T11:49:22.791Z,1100.00
2018-11-13T11:50:22.671Z,1512.00
2018-11-13T11:51:22.672Z,1604.00
2018-11-13T11:52:22.634Z,1800.00
2018-11-13T11:53:22.549Z,1964.00
2018-11-13T11:54:22.548Z,2240.00
2018-11-13T11:55:22.432Z,2076.00
2018-11-13T11:56:22.433Z,2568.00
2018-11-13T11:57:22.429Z,2604.00
2018-11-13T11:58:22.307Z,2028.00
2018-11-13T11:59:22.309Z,2740.00
2018-11-13T12:00:22.309Z,2756.00
2018-11-13T12:01:22.190Z,2776.00
2018-11-13T12:02:22.282Z,2404.00
2018-11-13T12:03:22.070Z,2452.00
2018-11-13T12:04:22.070Z,2472.00
2018-11-13T12:05:22.068Z,2540.00
2018-11-13T12:06:21.948Z,2316.00
2018-11-13T12:07:21.948Z,1876.00
2018-11-13T12:08:21.947Z,2416.00
2018-11-13T12:09:21.829Z,2772.00
2018-11-13T12:10:21.826Z,2460.00
2018-11-13T12:11:21.706Z,2400.00
2018-11-13T12:12:21.826Z,2376.00
2018-11-13T12:13:21.710Z,2368.00
2018-11-13T12:14:21.590Z,2532.00
2018-11-13T12:15:21.585Z,2740.00
2018-11-13T12:16:21.587Z,3120.00
2018-11-13T12:17:21.463Z,2492.00
2018-11-13T12:18:21.465Z,1832.00
2018-11-13T12:19:21.476Z,1948.00
2018-11-13T12:20:21.344Z,2272.00
2018-11-13T12:21:21.341Z,1692.00
2018-11-13T12:22:21.224Z,1900.00
2018-11-13T12:23:21.222Z,2060.00
2018-11-13T12:24:21.222Z,1556.00
2018-11-13T12:25:21.104Z,1256.00
2018-11-13T12:26:21.103Z,1120.00
2018-11-13T12:27:21.065Z,972.00
2018-11-13T12:28:20.982Z,1020.00
2018-11-13T12:29:20.981Z,1252.00
2018-11-13T12:30:20.865Z,1496.00
2018-11-13T12:31:20.864Z,1472.00
2018-11-13T12:32:20.861Z,1372.00
2018-11-13T12:33:20.740Z,980.00
2018-11-13T12:34:20.743Z,996.00
2018-11-13T12:35:20.745Z,1096.00
2018-11-13T12:36:20.625Z,1144.00
2018-11-13T12:37:20.620Z,1904.00
2018-11-13T12:38:20.504Z,1956.00
2018-11-13T12:39:20.509Z,1884.00
2018-11-13T12:40:20.502Z,1736.00
2018-11-13T12:41:20.381Z,2344.00
2018-11-13T12:42:20.380Z,3124.00
2018-11-13T12:43:20.379Z,3320.00
2018-11-13T12:44:20.259Z,3292.00
2018-11-13T12:45:20.258Z,3484.00
2018-11-13T12:46:20.165Z,3124.00